Orbital elements of COSMOS 970 DEB
| Launched | 20 December 1977 |
| Flight ended | – |
| Launch site | Tyuratam Missile and Space Center, Kazakhstan (Also known as Baikonur Cosmodrome) |
| Owner | Commonwealth of Independent States (former USSR) |
| NORAD ID | 10884 |
| Date fetched |
Epoch osculation |
Inc. [°] |
Ecc. | RA asc node [hr] |
Arg Peri. [°] |
Mean anom [°] |
Mean motion [rev/day] |
Abs. mag |
| Date fetched |
Epoch osculation |
Inc. [°] |
Ecc. | RA asc node [hr] |
Arg Peri. [°] |
Mean anom [°] |
Mean motion [rev/day] |
Abs. mag |
| 2026 May 03 17:57 | 2026 Apr 30 11:57:53 | 66.3854 | 0.02024 | 8.2726 | 305.7969 | 52.4434 | 13.78014 | – |
| 2026 May 02 17:57 | 2026 Apr 30 11:57:53 | 66.3854 | 0.02024 | 8.2726 | 305.7969 | 52.4434 | 13.78014 | – |
| 2026 May 01 17:56 | 2026 Apr 30 11:57:53 | 66.3854 | 0.02024 | 8.2726 | 305.7969 | 52.4434 | 13.78014 | – |
| 2026 Apr 30 17:56 | 2026 Apr 30 11:57:53 | 66.3854 | 0.02024 | 8.2726 | 305.7969 | 52.4434 | 13.78014 | – |
| 2026 Apr 29 17:57 | 2026 Apr 24 11:23:29 | 66.3855 | 0.02021 | 9.2491 | 309.3271 | 52.4434 | 13.78014 | – |
| 2026 Apr 28 17:56 | 2026 Apr 24 11:23:29 | 66.3855 | 0.02021 | 9.2491 | 309.3271 | 52.4434 | 13.78014 | – |
| 2026 Apr 27 17:58 | 2026 Apr 24 11:23:29 | 66.3855 | 0.02021 | 9.2491 | 309.3271 | 52.4434 | 13.78014 | – |
| 2026 Apr 26 17:58 | 2026 Apr 24 11:23:29 | 66.3855 | 0.02021 | 9.2491 | 309.3271 | 52.4434 | 13.78014 | – |
| 2026 Apr 25 17:58 | 2026 Apr 24 11:23:29 | 66.3855 | 0.02021 | 9.2491 | 309.3271 | 52.4434 | 13.78014 | – |
| 2026 Apr 24 17:59 | 2026 Apr 24 11:23:29 | 66.3855 | 0.02021 | 9.2491 | 309.3271 | 52.4434 | 13.78014 | – |
| 2026 Apr 23 17:57 | 2026 Apr 19 11:12:14 | 66.3863 | 0.02018 | 10.0608 | 312.2668 | 52.4434 | 13.78014 | – |
| 2026 Apr 22 17:57 | 2026 Apr 19 11:12:14 | 66.3863 | 0.02018 | 10.0608 | 312.2668 | 52.4434 | 13.78014 | – |
| 2026 Apr 21 17:57 | 2026 Apr 19 11:12:14 | 66.3863 | 0.02018 | 10.0608 | 312.2668 | 52.4434 | 13.78014 | – |
| 2026 Apr 20 17:57 | 2026 Apr 19 11:12:14 | 66.3863 | 0.02018 | 10.0608 | 312.2668 | 52.4434 | 13.78014 | – |
| 2026 Apr 19 17:58 | 2026 Apr 19 11:12:14 | 66.3863 | 0.02018 | 10.0608 | 312.2668 | 52.4434 | 13.78014 | – |
| 2026 Apr 18 17:56 | 2026 Apr 13 05:24:16 | 66.3869 | 0.02013 | 11.0726 | 315.9437 | 52.4434 | 13.78014 | – |
| 2026 Apr 16 17:57 | 2026 Apr 13 05:24:16 | 66.3869 | 0.02013 | 11.0726 | 315.9437 | 52.4434 | 13.78014 | – |
| 2026 Apr 14 17:57 | 2026 Apr 13 05:24:16 | 66.3869 | 0.02013 | 11.0726 | 315.9437 | 52.4434 | 13.78014 | – |
| 2026 Apr 13 17:57 | 2026 Apr 13 05:24:16 | 66.3869 | 0.02013 | 11.0726 | 315.9437 | 52.4434 | 13.78014 | – |
| 2026 Apr 12 17:57 | 2026 Apr 08 12:11:02 | 66.3877 | 0.02010 | 11.8372 | 318.7345 | 52.4434 | 13.78014 | – |
| 2026 Apr 11 17:57 | 2026 Apr 08 12:11:02 | 66.3877 | 0.02010 | 11.8372 | 318.7345 | 52.4434 | 13.78014 | – |
| 2026 Apr 10 17:58 | 2026 Apr 08 12:11:02 | 66.3877 | 0.02010 | 11.8372 | 318.7345 | 52.4434 | 13.78014 | – |
| 2026 Apr 09 18:01 | 2026 Apr 08 12:11:02 | 66.3877 | 0.02010 | 11.8372 | 318.7345 | 52.4434 | 13.78014 | – |
| 2026 Apr 08 17:57 | 2026 Apr 08 12:11:02 | 66.3877 | 0.02010 | 11.8372 | 318.7345 | 52.4434 | 13.78014 | – |
| 2026 Apr 07 17:57 | 2026 Apr 02 08:07:34 | 66.3879 | 0.02006 | 12.8371 | 322.3894 | 52.4434 | 13.78014 | – |
| 2026 Apr 06 17:57 | 2026 Apr 02 08:07:34 | 66.3879 | 0.02006 | 12.8371 | 322.3894 | 52.4434 | 13.78014 | – |